createdAt,value
2019-01-19T00:02:02.869Z,178.63
2019-01-19T00:04:54.957Z,172.73
2019-01-19T00:07:52.229Z,170.20
2019-01-19T00:11:20.833Z,172.00
2019-01-19T00:14:28.405Z,167.83
2019-01-19T00:17:47.775Z,166.60
2019-01-19T00:20:54.115Z,185.40
2019-01-19T00:23:59.760Z,169.73
2019-01-19T00:26:49.508Z,174.47
2019-01-19T00:30:02.623Z,170.43
2019-01-19T00:32:56.322Z,175.53
2019-01-19T00:35:49.153Z,180.20
2019-01-19T00:38:41.734Z,174.00
2019-01-19T00:41:38.616Z,175.80
2019-01-19T00:44:32.260Z,172.20
2019-01-19T00:47:16.919Z,169.00
2019-01-19T00:50:05.339Z,169.60
2019-01-19T00:52:49.550Z,168.93
2019-01-19T00:56:03.003Z,170.60
2019-01-19T00:59:02.281Z,166.10
2019-01-19T01:02:06.513Z,169.87
2019-01-19T01:05:25.677Z,169.90
2019-01-19T01:08:29.799Z,167.50
2019-01-19T01:11:10.786Z,165.97
2019-01-19T01:14:27.033Z,171.47
2019-01-19T01:17:33.135Z,174.67
2019-01-19T01:20:31.361Z,184.63
2019-01-19T01:23:52.916Z,188.17
2019-01-19T01:26:48.639Z,179.90
2019-01-19T01:29:57.752Z,184.30
2019-01-19T01:32:50.898Z,189.47
2019-01-19T01:35:44.326Z,183.27
2019-01-19T01:38:51.674Z,169.37
2019-01-19T01:41:35.702Z,170.17
2019-01-19T01:44:58.088Z,175.30
2019-01-19T01:48:32.716Z,174.93
2019-01-19T01:51:28.127Z,167.43
2019-01-19T01:54:29.083Z,170.43
2019-01-19T01:57:01.690Z,171.43
2019-01-19T02:00:03.274Z,170.47
2019-01-19T02:03:09.425Z,166.97
2019-01-19T02:06:17.474Z,181.23
2019-01-19T02:09:10.218Z,174.80
2019-01-19T02:12:03.437Z,170.30
2019-01-19T02:14:56.825Z,177.93
2019-01-19T02:18:02.012Z,166.13
2019-01-19T02:20:43.518Z,170.80
2019-01-19T02:23:25.259Z,173.40
2019-01-19T02:26:28.645Z,175.17
2019-01-19T02:29:27.986Z,173.73
2019-01-19T02:32:25.758Z,168.40
2019-01-19T02:35:19.532Z,169.83
2019-01-19T02:38:13.879Z,181.27
2019-01-19T02:41:07.356Z,172.90
2019-01-19T02:44:20.636Z,170.80
2019-01-19T02:47:23.808Z,168.77
2019-01-19T02:50:27.370Z,176.37
2019-01-19T02:53:50.442Z,171.37
2019-01-19T02:57:11.800Z,175.93
2019-01-19T03:00:14.201Z,174.20
2019-01-19T03:03:09.811Z,167.63
2019-01-19T03:06:12.898Z,173.97
2019-01-19T03:09:33.571Z,175.07
2019-01-19T03:12:44.504Z,170.87
2019-01-19T03:15:59.581Z,171.60
2019-01-19T03:18:56.833Z,176.80
2019-01-19T03:21:49.405Z,177.47
2019-01-19T03:24:38.330Z,187.90
2019-01-19T03:27:24.335Z,180.07
2019-01-19T03:30:42.973Z,184.80
2019-01-19T03:33:50.381Z,179.70
2019-01-19T03:36:38.368Z,183.57
2019-01-19T03:39:33.281Z,179.53
2019-01-19T03:42:36.379Z,180.73
2019-01-19T03:45:40.656Z,178.60
2019-01-19T03:48:59.829Z,185.70
2019-01-19T03:51:44.378Z,175.17
2019-01-19T03:54:44.561Z,184.67
2019-01-19T03:57:50.522Z,187.87
2019-01-19T04:00:51.533Z,177.67
2019-01-19T04:03:46.316Z,181.77
2019-01-19T04:07:05.690Z,183.93
2019-01-19T04:10:27.239Z,176.87
2019-01-19T04:13:27.106Z,182.77
2019-01-19T04:16:10.944Z,181.37
2019-01-19T04:19:17.789Z,176.50
2019-01-19T04:22:35.029Z,167.87
2019-01-19T04:25:27.949Z,168.20
2019-01-19T04:27:57.406Z,168.33
2019-01-19T04:30:26.401Z,165.77
2019-01-19T04:32:55.238Z,163.47
2019-01-19T04:35:24.103Z,169.60
2019-01-19T04:37:52.972Z,165.63
2019-01-19T04:40:21.822Z,170.43
2019-01-19T04:42:51.100Z,170.60
2019-01-19T04:45:19.994Z,171.50
2019-01-19T04:47:48.855Z,168.87
2019-01-19T04:50:17.634Z,176.33
2019-01-19T04:52:46.541Z,174.00
2019-01-19T04:55:15.351Z,177.97
2019-01-19T04:57:44.233Z,173.77
2019-01-19T05:00:17.947Z,181.13
2019-01-19T05:02:47.002Z,166.90
2019-01-19T05:05:15.924Z,183.60
2019-01-19T05:07:44.772Z,175.13
2019-01-19T05:10:13.560Z,173.87
2019-01-19T05:12:42.498Z,171.87
2019-01-19T05:15:16.984Z,171.17
2019-01-19T05:17:46.362Z,176.83
2019-01-19T05:20:15.552Z,171.83
2019-01-19T05:22:44.439Z,175.57
2019-01-19T05:25:13.378Z,178.20
2019-01-19T05:27:42.261Z,172.37
2019-01-19T05:30:14.359Z,169.47
2019-01-19T05:32:43.536Z,183.17
2019-01-19T05:35:12.704Z,180.77
2019-01-19T05:37:41.576Z,181.77
2019-01-19T05:40:11.063Z,183.73
2019-01-19T05:42:40.123Z,189.70
2019-01-19T05:45:10.630Z,184.17
2019-01-19T05:47:39.528Z,189.03
2019-01-19T05:50:12.545Z,190.23
2019-01-19T05:52:41.437Z,179.67
2019-01-19T05:55:10.385Z,183.30
2019-01-19T05:57:39.198Z,179.93
2019-01-19T06:00:12.321Z,177.17
2019-01-19T06:02:41.136Z,178.23
2019-01-19T06:05:10.265Z,179.07
2019-01-19T06:07:39.176Z,176.43
2019-01-19T06:10:10.492Z,178.37
2019-01-19T06:12:39.463Z,184.47
2019-01-19T06:15:09.954Z,187.80
2019-01-19T06:17:38.885Z,182.80
2019-01-19T06:20:08.929Z,179.03
2019-01-19T06:22:37.770Z,180.40
2019-01-19T06:25:08.035Z,190.73
2019-01-19T06:27:36.913Z,184.73
2019-01-19T06:30:07.013Z,192.27
2019-01-19T06:32:35.947Z,195.13
2019-01-19T06:35:05.392Z,186.57
2019-01-19T06:37:34.389Z,187.40
2019-01-19T06:40:03.400Z,189.57
2019-01-19T06:42:32.303Z,191.33
2019-01-19T06:45:01.151Z,185.20
2019-01-19T06:47:30.072Z,184.07
2019-01-19T06:49:59.016Z,190.43
2019-01-19T06:52:27.838Z,185.67
2019-01-19T06:54:56.782Z,187.13
2019-01-19T06:57:26.961Z,174.77
2019-01-19T06:59:55.932Z,185.27
2019-01-19T07:02:25.077Z,180.27
2019-01-19T07:04:54.054Z,184.57
2019-01-19T07:07:22.915Z,184.07
2019-01-19T07:09:51.813Z,191.67
2019-01-19T07:12:20.706Z,186.87
2019-01-19T07:14:49.561Z,181.63
2019-01-19T07:17:18.559Z,184.33
2019-01-19T07:19:47.514Z,187.30
2019-01-19T07:22:16.440Z,190.37
2019-01-19T07:24:45.340Z,183.40
2019-01-19T07:27:14.307Z,186.10
2019-01-19T07:29:43.282Z,187.90
2019-01-19T07:32:12.101Z,188.70
2019-01-19T07:34:41.087Z,191.90
2019-01-19T07:37:10.175Z,185.17
2019-01-19T07:39:39.071Z,184.53
2019-01-19T07:42:07.876Z,189.90
2019-01-19T07:44:36.681Z,189.23
2019-01-19T07:47:06.183Z,183.07
2019-01-19T07:49:35.098Z,191.47
2019-01-19T07:52:04.035Z,178.30
2019-01-19T07:54:32.944Z,184.33
2019-01-19T07:57:01.791Z,182.17
2019-01-19T07:59:30.583Z,173.10
2019-01-19T08:01:59.461Z,180.73
2019-01-19T08:04:28.454Z,173.43
2019-01-19T08:06:57.363Z,193.73
2019-01-19T08:09:26.293Z,190.23
2019-01-19T08:11:55.264Z,200.67
2019-01-19T08:14:24.197Z,192.63
2019-01-19T08:16:53.121Z,202.80
2019-01-19T08:19:22.085Z,195.93
2019-01-19T08:21:51.074Z,198.27
2019-01-19T08:24:19.974Z,180.77
2019-01-19T08:26:48.961Z,183.37
2019-01-19T08:29:18.433Z,164.30
2019-01-19T08:31:47.565Z,169.30
2019-01-19T08:34:16.421Z,189.00
2019-01-19T08:36:45.329Z,180.20
2019-01-19T08:39:14.086Z,198.77
2019-01-19T08:41:43.008Z,189.47
2019-01-19T08:44:11.906Z,178.70
2019-01-19T08:46:40.842Z,181.97
2019-01-19T08:49:09.829Z,187.73
2019-01-19T08:51:38.704Z,188.30
2019-01-19T08:54:07.883Z,190.17
2019-01-19T08:56:38.170Z,189.83
2019-01-19T08:59:07.290Z,176.37
2019-01-19T09:01:36.156Z,179.90
2019-01-19T09:04:05.061Z,182.70
2019-01-19T09:06:33.839Z,183.30
2019-01-19T09:09:03.430Z,172.47
2019-01-19T09:11:32.390Z,172.40
2019-01-19T09:14:01.401Z,174.03
2019-01-19T09:16:30.347Z,182.57
2019-01-19T09:18:59.236Z,173.77
2019-01-19T09:21:28.199Z,174.80
2019-01-19T09:24:13.995Z,173.00
2019-01-19T09:26:42.880Z,181.30
2019-01-19T09:29:11.871Z,188.43
2019-01-19T09:31:40.750Z,186.43
2019-01-19T09:34:21.275Z,199.73
2019-01-19T09:36:50.217Z,192.27
2019-01-19T09:39:19.179Z,195.03
2019-01-19T09:41:48.100Z,193.10
2019-01-19T09:44:17.025Z,196.20
2019-01-19T09:46:45.953Z,192.47
2019-01-19T09:49:14.768Z,202.50
2019-01-19T09:51:43.730Z,189.13
2019-01-19T09:54:12.808Z,187.70
2019-01-19T09:56:41.639Z,194.50
2019-01-19T09:59:10.537Z,189.23
2019-01-19T10:01:39.468Z,194.33
2019-01-19T10:04:08.410Z,194.97
2019-01-19T10:06:37.234Z,192.17
2019-01-19T10:09:08.174Z,191.37
2019-01-19T10:11:37.094Z,195.83
2019-01-19T10:14:06.586Z,188.53
2019-01-19T10:16:35.499Z,187.17
2019-01-19T10:19:04.347Z,198.87
2019-01-19T10:21:33.599Z,191.00
2019-01-19T10:24:02.509Z,188.47
2019-01-19T10:26:31.395Z,195.10
2019-01-19T10:29:00.573Z,191.70
2019-01-19T10:31:29.746Z,191.03
2019-01-19T10:33:58.885Z,186.10
2019-01-19T10:36:27.792Z,191.47
2019-01-19T10:38:56.591Z,193.80
2019-01-19T10:41:25.421Z,184.67
2019-01-19T10:43:54.216Z,188.70
2019-01-19T10:46:23.155Z,191.50
2019-01-19T10:48:52.091Z,192.20
2019-01-19T10:51:21.105Z,191.23
2019-01-19T10:53:50.161Z,191.70
2019-01-19T10:56:19.099Z,185.13
2019-01-19T10:58:47.897Z,187.57
2019-01-19T11:01:16.753Z,189.97
2019-01-19T11:03:45.677Z,187.47
2019-01-19T11:06:14.686Z,187.33
2019-01-19T11:08:43.533Z,184.50
2019-01-19T11:11:12.430Z,185.67
2019-01-19T11:13:41.351Z,192.63
2019-01-19T11:16:10.281Z,185.60
2019-01-19T11:18:39.267Z,187.27
2019-01-19T11:21:08.235Z,191.00
2019-01-19T11:23:39.934Z,181.23
2019-01-19T11:26:07.701Z,190.33
2019-01-19T11:28:36.731Z,191.77
2019-01-19T11:31:05.695Z,220.25
2019-01-19T11:33:34.641Z,186.67
2019-01-19T11:36:03.697Z,193.57
2019-01-19T11:38:32.772Z,189.93
2019-01-19T11:41:01.710Z,197.63
2019-01-19T11:43:30.798Z,190.57
2019-01-19T11:45:59.639Z,196.20
2019-01-19T11:48:28.683Z,190.40
2019-01-19T11:50:57.613Z,198.60
2019-01-19T11:53:26.564Z,190.50
2019-01-19T11:55:55.579Z,195.43
2019-01-19T11:58:24.343Z,190.53
2019-01-19T12:00:53.213Z,193.57
2019-01-19T12:03:22.213Z,187.23
2019-01-19T12:05:51.241Z,186.37
2019-01-19T12:08:20.118Z,179.27
2019-01-19T12:10:48.905Z,187.83
2019-01-19T12:13:17.790Z,184.60
2019-01-19T12:15:46.818Z,183.87
2019-01-19T12:18:15.919Z,180.57
2019-01-19T12:20:46.933Z,179.17
2019-01-19T12:23:16.073Z,195.80
2019-01-19T12:25:45.036Z,183.67
2019-01-19T12:28:14.132Z,180.87
2019-01-19T12:30:43.167Z,181.53
2019-01-19T12:33:12.285Z,188.90
2019-01-19T12:35:41.428Z,180.60
2019-01-19T12:38:10.386Z,186.07
2019-01-19T12:40:39.521Z,188.77
2019-01-19T12:43:20.148Z,177.53
2019-01-19T12:45:55.031Z,184.93
2019-01-19T12:48:24.007Z,184.53
2019-01-19T12:50:52.819Z,189.13
2019-01-19T12:53:21.756Z,184.43
2019-01-19T12:55:50.562Z,183.33
2019-01-19T12:58:19.556Z,190.83
2019-01-19T13:00:49.326Z,187.23
2019-01-19T13:03:18.324Z,188.53
2019-01-19T13:06:13.997Z,187.40
2019-01-19T13:08:42.812Z,181.73
2019-01-19T13:11:40.326Z,183.23
2019-01-19T13:14:09.280Z,186.47
2019-01-19T13:17:23.763Z,184.33
2019-01-19T13:20:20.880Z,218.30
2019-01-19T13:23:23.633Z,193.17
2019-01-19T13:26:35.713Z,198.00
2019-01-19T13:29:55.045Z,202.83
2019-01-19T13:32:57.231Z,213.40
2019-01-19T13:36:12.069Z,208.83
2019-01-19T13:39:07.814Z,194.00
2019-01-19T13:42:13.957Z,206.77
2019-01-19T13:45:04.879Z,197.20
2019-01-19T13:48:03.158Z,201.43
2019-01-19T13:51:09.299Z,208.50
2019-01-19T13:54:12.802Z,196.00
2019-01-19T13:57:11.836Z,187.23
2019-01-19T14:00:34.412Z,192.20
2019-01-19T14:03:55.633Z,194.37
2019-01-19T14:06:52.965Z,201.80
2019-01-19T14:09:52.150Z,199.37
2019-01-19T14:13:17.755Z,192.63
2019-01-19T14:16:13.975Z,199.57
2019-01-19T14:19:03.298Z,190.93
2019-01-19T14:22:12.237Z,198.53
2019-01-19T14:24:59.893Z,191.57
2019-01-19T14:28:13.282Z,191.83
2019-01-19T14:31:22.538Z,192.40
2019-01-19T14:34:29.927Z,188.20
2019-01-19T14:37:39.811Z,190.27
2019-01-19T14:41:05.123Z,197.13
2019-01-19T14:43:56.661Z,196.77
2019-01-19T14:46:41.885Z,203.27
2019-01-19T14:49:54.200Z,196.17
2019-01-19T14:52:46.172Z,197.40
2019-01-19T14:55:24.846Z,195.80
2019-01-19T14:58:22.660Z,190.10
2019-01-19T15:01:29.001Z,195.90
2019-01-19T15:04:38.255Z,195.37
2019-01-19T15:07:34.692Z,186.70
2019-01-19T15:10:38.275Z,194.07
2019-01-19T15:13:44.233Z,191.10
2019-01-19T15:16:46.233Z,193.90
2019-01-19T15:20:01.805Z,189.37
2019-01-19T15:23:18.805Z,193.07
2019-01-19T15:26:41.645Z,192.23
2019-01-19T15:29:40.790Z,206.60
2019-01-19T15:32:57.327Z,201.90
2019-01-19T15:35:51.754Z,202.17
2019-01-19T15:38:45.601Z,189.77
2019-01-19T15:41:54.818Z,189.70
2019-01-19T15:44:53.239Z,192.80
2019-01-19T15:47:53.902Z,191.03
2019-01-19T15:51:16.761Z,197.67
2019-01-19T15:54:26.916Z,211.30
2019-01-19T15:57:26.096Z,189.43
2019-01-19T16:00:18.082Z,192.30
2019-01-19T16:03:14.932Z,200.23
2019-01-19T16:06:22.375Z,219.47
2019-01-19T16:09:18.276Z,230.10
2019-01-19T16:12:00.273Z,194.57
2019-01-19T16:15:12.915Z,201.87
2019-01-19T16:18:14.981Z,191.57
2019-01-19T16:21:06.358Z,201.47
2019-01-19T16:24:02.083Z,191.23
2019-01-19T16:27:12.115Z,187.43
2019-01-19T16:30:18.835Z,205.97
2019-01-19T16:33:11.863Z,185.73
2019-01-19T16:35:56.367Z,194.03
2019-01-19T16:38:55.868Z,188.27
2019-01-19T16:41:58.371Z,186.10
2019-01-19T16:45:15.620Z,191.97
2019-01-19T16:48:20.849Z,191.73
2019-01-19T16:51:11.966Z,191.00
2019-01-19T16:54:05.044Z,189.50
2019-01-19T16:57:30.559Z,191.53
2019-01-19T17:00:36.811Z,186.73
2019-01-19T17:03:40.418Z,191.83
2019-01-19T17:06:56.682Z,199.70
2019-01-19T17:09:38.985Z,199.83
2019-01-19T17:12:47.928Z,190.77
2019-01-19T17:15:43.312Z,194.43
2019-01-19T17:18:48.612Z,196.40
2019-01-19T17:21:52.727Z,188.33
2019-01-19T17:24:57.949Z,185.60
2019-01-19T17:27:51.708Z,189.73
2019-01-19T17:31:08.344Z,195.40
2019-01-19T17:33:50.386Z,192.07
2019-01-19T17:37:08.539Z,187.80
2019-01-19T17:40:26.920Z,192.27
2019-01-19T17:43:23.234Z,191.03
2019-01-19T17:46:32.679Z,192.27
2019-01-19T17:49:40.647Z,192.57
2019-01-19T17:52:50.737Z,186.00
2019-01-19T17:55:43.555Z,191.93
2019-01-19T17:58:34.724Z,189.07
2019-01-19T18:01:42.480Z,189.03
2019-01-19T18:04:26.248Z,192.27
2019-01-19T18:07:42.592Z,193.57
2019-01-19T18:10:54.620Z,188.97
2019-01-19T18:14:06.899Z,192.70
2019-01-19T18:17:01.952Z,195.50
2019-01-19T18:19:53.279Z,196.73
2019-01-19T18:23:06.781Z,191.30
2019-01-19T18:26:03.980Z,187.63
2019-01-19T18:28:55.606Z,187.37
2019-01-19T18:32:04.666Z,189.53
2019-01-19T18:34:51.571Z,186.77
2019-01-19T18:38:04.682Z,187.23
2019-01-19T18:41:27.074Z,188.27
2019-01-19T18:44:33.347Z,185.00
2019-01-19T18:47:49.744Z,185.90
2019-01-19T18:50:53.128Z,190.90
2019-01-19T18:53:47.496Z,192.10
2019-01-19T18:56:50.687Z,187.00
2019-01-19T18:59:34.988Z,197.77
2019-01-19T19:02:23.231Z,183.07
2019-01-19T19:05:25.509Z,191.07
2019-01-19T19:08:05.933Z,183.90
2019-01-19T19:11:37.577Z,190.27
2019-01-19T19:14:40.638Z,182.73
2019-01-19T19:17:53.543Z,187.47
2019-01-19T19:21:12.670Z,179.40
2019-01-19T19:24:31.215Z,182.67
2019-01-19T19:28:01.500Z,187.27
2019-01-19T19:31:02.373Z,185.80
2019-01-19T19:33:59.248Z,182.57
2019-01-19T19:37:00.076Z,188.53
2019-01-19T19:40:25.701Z,182.53
2019-01-19T19:43:21.610Z,182.50
2019-01-19T19:45:57.229Z,189.97
2019-01-19T19:48:51.231Z,191.67
2019-01-19T19:51:57.320Z,185.37
2019-01-19T19:54:27.080Z,181.83
2019-01-19T19:56:56.006Z,185.83
2019-01-19T19:59:24.881Z,187.87
2019-01-19T20:01:53.693Z,179.40
2019-01-19T20:04:22.502Z,194.60
2019-01-19T20:06:51.501Z,184.83
2019-01-19T20:09:20.448Z,185.43
2019-01-19T20:11:50.034Z,184.83
2019-01-19T20:14:18.963Z,195.40
2019-01-19T20:16:47.861Z,184.00
2019-01-19T20:19:16.870Z,185.63
2019-01-19T20:21:45.872Z,182.37
2019-01-19T20:24:14.945Z,189.23
2019-01-19T20:26:43.952Z,184.00
2019-01-19T20:29:12.940Z,179.60
2019-01-19T20:31:41.902Z,177.30
2019-01-19T20:34:10.807Z,173.03
2019-01-19T20:36:39.849Z,179.07
2019-01-19T20:39:09.798Z,174.77
2019-01-19T20:41:38.711Z,171.90
2019-01-19T20:44:07.663Z,169.40
2019-01-19T20:46:36.695Z,180.53
2019-01-19T20:49:05.634Z,175.93
2019-01-19T20:51:34.620Z,180.97
2019-01-19T20:54:03.600Z,176.83
2019-01-19T20:56:32.514Z,177.33
2019-01-19T20:59:01.598Z,182.70
2019-01-19T21:01:30.555Z,184.43
2019-01-19T21:03:59.386Z,182.97
2019-01-19T21:06:28.312Z,173.73
2019-01-19T21:08:57.267Z,176.60
2019-01-19T21:11:26.324Z,176.37
2019-01-19T21:13:55.311Z,169.23
2019-01-19T21:16:24.250Z,174.13
2019-01-19T21:18:53.305Z,181.37
2019-01-19T21:21:22.450Z,180.70
2019-01-19T21:23:51.317Z,183.17
2019-01-19T21:26:20.144Z,178.37
2019-01-19T21:28:48.993Z,180.67
2019-01-19T21:31:18.044Z,181.53
2019-01-19T21:33:46.926Z,188.17
2019-01-19T21:36:15.910Z,177.90
2019-01-19T21:38:44.722Z,174.30
2019-01-19T21:41:13.693Z,190.70
2019-01-19T21:43:43.308Z,174.40
2019-01-19T21:46:12.449Z,181.93
2019-01-19T21:48:41.348Z,183.40
2019-01-19T21:51:10.179Z,175.40
2019-01-19T21:53:39.135Z,176.07
2019-01-19T21:56:07.996Z,176.27
2019-01-19T21:58:36.819Z,170.27
2019-01-19T22:01:05.794Z,175.27
2019-01-19T22:03:34.743Z,174.97
2019-01-19T22:06:03.647Z,186.17
2019-01-19T22:08:32.634Z,176.90
2019-01-19T22:11:01.534Z,184.10
2019-01-19T22:13:30.452Z,228.70
2019-01-19T22:15:59.316Z,200.33
2019-01-19T22:18:28.230Z,212.43
2019-01-19T22:20:57.147Z,217.17
2019-01-19T22:23:26.059Z,201.00
2019-01-19T22:25:54.946Z,190.03
2019-01-19T22:28:23.920Z,179.63
2019-01-19T22:30:52.729Z,174.03
2019-01-19T22:33:22.024Z,170.90
2019-01-19T22:35:51.136Z,187.13
2019-01-19T22:38:20.051Z,184.67
2019-01-19T22:40:53.580Z,188.77
2019-01-19T22:43:23.531Z,188.80
2019-01-19T22:45:52.476Z,182.27
2019-01-19T22:48:21.284Z,180.73
2019-01-19T22:50:50.194Z,176.00
2019-01-19T22:53:19.100Z,191.33
2019-01-19T22:55:48.111Z,190.07
2019-01-19T22:58:17.122Z,195.10
2019-01-19T23:01:17.888Z,184.43
2019-01-19T23:03:46.820Z,187.33
2019-01-19T23:06:15.799Z,184.93
2019-01-19T23:08:44.914Z,179.10
2019-01-19T23:11:14.040Z,173.70
2019-01-19T23:13:43.043Z,185.83
2019-01-19T23:16:11.941Z,183.93
2019-01-19T23:18:40.886Z,192.33
2019-01-19T23:21:09.861Z,180.67
2019-01-19T23:23:38.882Z,180.07
2019-01-19T23:26:07.904Z,205.67
2019-01-19T23:28:36.939Z,204.13
2019-01-19T23:31:05.800Z,193.00
2019-01-19T23:33:34.614Z,179.73
2019-01-19T23:36:03.598Z,176.80
2019-01-19T23:38:32.521Z,178.73
2019-01-19T23:41:08.664Z,178.93
2019-01-19T23:43:32.234Z,189.90
2019-01-19T23:46:01.315Z,178.23
2019-01-19T23:48:30.279Z,176.97
2019-01-19T23:50:59.093Z,174.70
2019-01-19T23:53:27.974Z,177.83
2019-01-19T23:55:57.052Z,176.03
2019-01-19T23:58:26.189Z,183.10
